createdAt,value
2022-10-03T00:00:19.216Z,15.12
2022-10-03T00:03:39.811Z,15.15
2022-10-03T00:06:44.687Z,15.18
2022-10-03T00:09:53.034Z,15.16
2022-10-03T00:13:11.891Z,15.17
2022-10-03T00:16:37.928Z,15.15
2022-10-03T00:19:47.567Z,15.12
2022-10-03T00:22:54.283Z,15.13
2022-10-03T00:26:24.100Z,15.12
2022-10-03T00:29:30.559Z,15.17
2022-10-03T00:32:24.865Z,15.19
2022-10-03T00:35:15.608Z,15.22
2022-10-03T00:38:44.805Z,15.27
2022-10-03T00:41:53.943Z,15.28
2022-10-03T00:45:23.949Z,15.31
2022-10-03T00:48:23.840Z,15.35
2022-10-03T00:51:43.940Z,15.38
2022-10-03T00:54:53.899Z,15.40
2022-10-03T00:58:09.187Z,15.41
2022-10-03T01:01:30.095Z,15.45
2022-10-03T01:04:28.994Z,15.44
2022-10-03T01:07:35.715Z,15.49
2022-10-03T01:10:30.056Z,15.55
2022-10-03T01:13:52.502Z,15.60
2022-10-03T01:16:55.990Z,15.61
2022-10-03T01:20:09.439Z,15.65
2022-10-03T01:23:00.515Z,15.68
2022-10-03T01:25:52.575Z,15.70
2022-10-03T01:29:11.416Z,15.73
2022-10-03T01:32:05.536Z,15.74
2022-10-03T01:35:38.331Z,15.76
2022-10-03T01:39:03.568Z,15.78
2022-10-03T01:42:04.472Z,15.79
2022-10-03T01:44:58.494Z,15.80
2022-10-03T01:48:01.824Z,15.82
2022-10-03T01:51:14.093Z,15.85
2022-10-03T01:54:04.953Z,15.85
2022-10-03T01:57:01.899Z,15.88
2022-10-03T01:59:49.689Z,15.90
2022-10-03T02:02:54.670Z,15.92
2022-10-03T02:06:03.377Z,15.93
2022-10-03T02:09:11.099Z,15.96
2022-10-03T02:12:09.801Z,15.95
2022-10-03T02:15:30.132Z,15.97
2022-10-03T02:18:55.302Z,16.00
2022-10-03T02:21:55.219Z,15.99
2022-10-03T02:25:00.680Z,16.02
2022-10-03T02:28:18.337Z,16.05
2022-10-03T02:31:23.716Z,16.06
2022-10-03T02:34:30.655Z,16.07
2022-10-03T02:37:40.973Z,16.11
2022-10-03T02:41:08.513Z,16.16
2022-10-03T02:44:18.201Z,16.19
2022-10-03T02:47:21.300Z,16.22
2022-10-03T02:50:38.855Z,16.28
2022-10-03T02:53:45.899Z,16.31
2022-10-03T02:56:42.834Z,16.33
2022-10-03T02:59:43.933Z,16.38
2022-10-03T03:02:54.980Z,16.40
2022-10-03T03:05:58.650Z,16.43
2022-10-03T03:09:27.323Z,16.43
2022-10-03T03:12:24.396Z,16.45
2022-10-03T03:15:44.338Z,16.43
2022-10-03T03:18:46.749Z,16.46
2022-10-03T03:21:53.621Z,16.44
2022-10-03T03:24:54.473Z,16.47
2022-10-03T03:28:02.248Z,16.47
2022-10-03T03:31:07.550Z,16.47
2022-10-03T03:34:23.209Z,16.48
2022-10-03T03:37:27.119Z,16.48
2022-10-03T03:40:32.445Z,16.53
2022-10-03T03:43:34.936Z,16.57
2022-10-03T03:46:49.349Z,16.58
2022-10-03T03:49:51.859Z,16.61
2022-10-03T03:53:01.742Z,16.63
2022-10-03T03:56:00.710Z,16.68
2022-10-03T03:59:16.715Z,16.72
2022-10-03T04:02:35.476Z,16.71
2022-10-03T04:06:14.239Z,16.74
2022-10-03T04:09:14.643Z,16.77
2022-10-03T04:13:14.021Z,16.82
2022-10-03T04:16:58.382Z,16.82
2022-10-03T04:19:48.783Z,16.84
2022-10-03T04:23:01.599Z,16.86
2022-10-03T04:26:02.453Z,16.92
2022-10-03T04:29:36.661Z,16.99
2022-10-03T04:33:01.869Z,17.06
2022-10-03T04:36:16.341Z,17.06
2022-10-03T04:39:17.096Z,17.11
2022-10-03T04:42:24.636Z,17.19
2022-10-03T04:45:15.477Z,17.21
2022-10-03T04:48:17.059Z,17.29
2022-10-03T04:52:03.896Z,17.37
2022-10-03T04:55:06.774Z,17.42
2022-10-03T04:58:36.822Z,17.46
2022-10-03T05:01:50.961Z,17.54
2022-10-03T05:05:01.966Z,17.61
2022-10-03T05:08:18.943Z,17.73
2022-10-03T05:11:19.223Z,17.92
2022-10-03T05:14:18.858Z,17.97
2022-10-03T05:17:25.442Z,17.98
2022-10-03T05:20:43.290Z,17.88
